createdAt,value
2022-11-12T00:00:19.258Z,97932.53
2022-11-12T00:03:05.310Z,97929.84
2022-11-12T00:05:51.662Z,97932.63
2022-11-12T00:08:37.927Z,97934.59
2022-11-12T00:11:23.552Z,97932.75
2022-11-12T00:14:09.476Z,97935.06
2022-11-12T00:16:54.845Z,97933.91
2022-11-12T00:19:40.742Z,97930.94
2022-11-12T00:22:26.442Z,97933.63
2022-11-12T00:25:12.678Z,97944.13
2022-11-12T00:28:09.216Z,97938.03
2022-11-12T00:30:54.882Z,97947.72
2022-11-12T00:33:42.361Z,97945.53
2022-11-12T00:36:27.699Z,97940.16
2022-11-12T00:39:13.415Z,97948.78
2022-11-12T00:41:59.185Z,97947.31
2022-11-12T00:44:46.079Z,97947.38
2022-11-12T00:47:31.588Z,97945.91
2022-11-12T00:50:17.490Z,97948.31
2022-11-12T00:53:02.865Z,97946.91
2022-11-12T00:55:48.792Z,97949.69
2022-11-12T00:58:36.284Z,97949.47
2022-11-12T01:01:22.250Z,97951.78
2022-11-12T01:04:08.380Z,97943.38
2022-11-12T01:06:54.203Z,97938.34
2022-11-12T01:09:40.159Z,97940.34
2022-11-12T01:12:25.962Z,97942.38
2022-11-12T01:15:11.522Z,97942.03
2022-11-12T01:17:57.117Z,97943.56
2022-11-12T01:20:42.800Z,97937.78
2022-11-12T01:23:28.912Z,97929.69
2022-11-12T01:26:17.547Z,97934.66
2022-11-12T01:29:03.412Z,97933.13
2022-11-12T01:31:49.169Z,97937.34
2022-11-12T01:34:34.861Z,97930.09
2022-11-12T01:37:20.531Z,97926.66
2022-11-12T01:40:06.930Z,97929.69
2022-11-12T01:42:54.163Z,97924.31
2022-11-12T01:45:47.096Z,97918.13
2022-11-12T01:48:41.302Z,97925.41
2022-11-12T01:51:35.047Z,97917.34
2022-11-12T01:54:22.485Z,97919.56
2022-11-12T01:57:11.196Z,97929.53
2022-11-12T02:00:02.194Z,97921.03
2022-11-12T02:02:57.856Z,97913.41
2022-11-12T02:05:44.022Z,97912.88
2022-11-12T02:08:31.434Z,97913.97
2022-11-12T02:11:21.912Z,97915.50
2022-11-12T02:14:08.288Z,97919.72
2022-11-12T02:16:54.370Z,97923.53
2022-11-12T02:19:39.868Z,97923.38
2022-11-12T02:22:25.397Z,97917.59
2022-11-12T02:25:21.190Z,97919.13
2022-11-12T02:28:08.610Z,97917.81
2022-11-12T02:30:54.430Z,97923.56
2022-11-12T02:33:40.096Z,97918.19
2022-11-12T02:36:25.951Z,97926.19
2022-11-12T02:39:11.407Z,97915.03
2022-11-12T02:41:57.355Z,97918.88
2022-11-12T02:44:43.235Z,97915.13
2022-11-12T02:47:29.249Z,97915.91
2022-11-12T02:50:15.478Z,97914.81
2022-11-12T02:53:01.019Z,97911.28
2022-11-12T02:55:46.858Z,97914.38
2022-11-12T02:58:32.332Z,97916.38
2022-11-12T03:01:17.938Z,97904.06
2022-11-12T03:04:05.117Z,97906.44
2022-11-12T03:06:50.559Z,97903.78
2022-11-12T03:09:36.679Z,97903.78
2022-11-12T03:12:22.396Z,97903.78
2022-11-12T03:15:08.417Z,97901.16
2022-11-12T03:17:53.968Z,97897.78
2022-11-12T03:20:39.962Z,97894.31
2022-11-12T03:23:27.408Z,97893.19
2022-11-12T03:26:13.140Z,97899.75
2022-11-12T03:28:58.770Z,97893.19
2022-11-12T03:31:44.712Z,97881.69
2022-11-12T03:34:30.395Z,97895.97
2022-11-12T03:37:16.158Z,97892.16
2022-11-12T03:40:02.149Z,97888.34
2022-11-12T03:42:49.571Z,97896.78
2022-11-12T03:45:35.230Z,97891.81
2022-11-12T03:48:21.460Z,97885.31
2022-11-12T03:51:07.008Z,97881.13
2022-11-12T03:53:53.137Z,97876.47
2022-11-12T03:56:38.920Z,97885.38
2022-11-12T03:59:24.758Z,97878.06
2022-11-12T04:02:14.634Z,97883.50
2022-11-12T04:05:18.751Z,97888.22
2022-11-12T04:08:33.099Z,97881.38
2022-11-12T04:11:18.962Z,97891.94
2022-11-12T04:14:04.953Z,97888.66
2022-11-12T04:17:09.107Z,97877.72
2022-11-12T04:20:13.081Z,97874.72
2022-11-12T04:22:58.859Z,97870.59
2022-11-12T04:26:03.528Z,97874.47
2022-11-12T04:29:07.689Z,97868.72
2022-11-12T04:31:53.621Z,97868.72
2022-11-12T04:34:39.337Z,97872.63
2022-11-12T04:37:27.488Z,97868.81
2022-11-12T04:40:37.730Z,97871.97
2022-11-12T04:43:42.028Z,97862.53
2022-11-12T04:46:27.739Z,97861.34
2022-11-12T04:49:13.081Z,97871.75
2022-11-12T04:52:07.996Z,97869.91
2022-11-12T04:54:54.212Z,97870.75
2022-11-12T04:57:39.726Z,97870.75
2022-11-12T05:00:25.410Z,97868.84
2022-11-12T05:03:11.690Z,97863.13
2022-11-12T05:06:25.827Z,97863.19
2022-11-12T05:09:11.691Z,97864.84
2022-11-12T05:11:57.666Z,97860.38
2022-11-12T05:14:43.631Z,97851.69
2022-11-12T05:17:29.561Z,97857.94
2022-11-12T05:20:16.458Z,97848.06
2022-11-12T05:23:07.132Z,97847.31
2022-11-12T05:25:53.206Z,97835.09
2022-11-12T05:28:39.018Z,97834.34
2022-11-12T05:31:27.657Z,97835.88
2022-11-12T05:34:14.246Z,97831.66
2022-11-12T05:37:03.239Z,97837.84
2022-11-12T05:39:51.124Z,97825.28
2022-11-12T05:42:36.552Z,97827.31
2022-11-12T05:45:22.310Z,97830.44
2022-11-12T05:48:07.810Z,97842.78
2022-11-12T05:51:14.421Z,97842.53
2022-11-12T05:53:59.557Z,97836.84
2022-11-12T05:56:45.569Z,97825.41
2022-11-12T05:59:31.258Z,97828.53
2022-11-12T06:02:16.962Z,97823.97
2022-11-12T06:05:02.857Z,97828.59
2022-11-12T06:07:48.570Z,97825.22
2022-11-12T06:10:35.343Z,97829.84
2022-11-12T06:13:22.925Z,97843.66
2022-11-12T06:16:08.713Z,97843.69
2022-11-12T06:18:54.571Z,97854.03
2022-11-12T06:21:39.844Z,97845.69
2022-11-12T06:24:27.535Z,97844.16
2022-11-12T06:27:16.428Z,97855.22
2022-11-12T06:30:02.344Z,97860.94
2022-11-12T06:32:49.504Z,97865.50
2022-11-12T06:35:38.033Z,97865.50
2022-11-12T06:38:28.271Z,97873.16
2022-11-12T06:41:14.956Z,97877.38
2022-11-12T06:44:01.022Z,97878.13
2022-11-12T06:46:46.625Z,97887.66
2022-11-12T06:49:32.310Z,97878.50
2022-11-12T06:52:17.791Z,97890.69
2022-11-12T06:55:03.808Z,97900.25
2022-11-12T06:57:53.059Z,97896.03
2022-11-12T07:00:38.840Z,97904.06
2022-11-12T07:03:24.501Z,97912.47
2022-11-12T07:06:15.911Z,97908.59
2022-11-12T07:09:01.691Z,97917.00
2022-11-12T07:11:47.227Z,97916.59
2022-11-12T07:14:33.120Z,97914.66
2022-11-12T07:17:18.666Z,97924.59
2022-11-12T07:20:04.575Z,97924.19
2022-11-12T07:22:50.294Z,97922.63
2022-11-12T07:25:36.321Z,97926.06
2022-11-12T07:28:21.796Z,97927.16
2022-11-12T07:31:11.243Z,97932.13
2022-11-12T07:33:56.957Z,97925.19
2022-11-12T07:36:42.514Z,97935.88
2022-11-12T07:39:28.393Z,97936.63
2022-11-12T07:42:14.291Z,97932.75
2022-11-12T07:44:59.975Z,97950.75
2022-11-12T07:47:45.703Z,97962.59
2022-11-12T07:50:31.317Z,97957.22
2022-11-12T07:53:17.126Z,97956.06
2022-11-12T07:56:04.934Z,97961.78
2022-11-12T07:58:51.278Z,97973.66
2022-11-12T08:01:41.761Z,97963.28
2022-11-12T08:04:27.817Z,97966.31
2022-11-12T08:07:13.551Z,97970.53
2022-11-12T08:10:00.055Z,97967.09
2022-11-12T08:12:45.736Z,97956.75
2022-11-12T08:15:32.320Z,97967.06
2022-11-12T08:18:18.300Z,97970.50
2022-11-12T08:21:06.874Z,97975.44
2022-11-12T08:23:52.990Z,97976.59
2022-11-12T08:26:38.717Z,97981.97
2022-11-12T08:29:24.166Z,97981.19
2022-11-12T08:32:09.950Z,97982.31
2022-11-12T08:34:55.338Z,97989.97
2022-11-12T08:37:41.090Z,97996.06
2022-11-12T08:40:28.492Z,97989.50
2022-11-12T08:43:14.230Z,97988.69
2022-11-12T08:46:01.227Z,97995.94
2022-11-12T08:48:46.575Z,97990.53
2022-11-12T08:51:32.113Z,97990.50
2022-11-12T08:54:18.349Z,97986.66
2022-11-12T08:57:04.087Z,97977.06
2022-11-12T08:59:49.878Z,97990.75
2022-11-12T09:02:35.493Z,97981.50
2022-11-12T09:05:21.292Z,97987.16
2022-11-12T09:08:09.915Z,97987.09
2022-11-12T09:10:58.196Z,97982.41
2022-11-12T09:13:44.228Z,97977.75
2022-11-12T09:16:30.100Z,97972.75
2022-11-12T09:19:15.635Z,97986.16
2022-11-12T09:22:01.726Z,97981.06
2022-11-12T09:24:47.549Z,97980.25
2022-11-12T09:27:33.048Z,97981.66
2022-11-12T09:30:19.128Z,97982.75
2022-11-12T09:33:05.109Z,97979.59
2022-11-12T09:35:51.984Z,97985.63
2022-11-12T09:38:38.037Z,97985.50
2022-11-12T09:41:28.628Z,97989.94
2022-11-12T09:44:19.122Z,97992.50
2022-11-12T09:47:24.132Z,97994.72
2022-11-12T09:50:22.240Z,98002.19
2022-11-12T09:53:37.120Z,98007.75
2022-11-12T09:56:28.548Z,98012.13
2022-11-12T09:59:14.521Z,98006.19
2022-11-12T10:02:18.651Z,98009.06
2022-11-12T10:05:29.285Z,98011.41
2022-11-12T10:08:49.392Z,98006.94
2022-11-12T10:12:05.706Z,97996.81
2022-11-12T10:15:31.159Z,97992.88
2022-11-12T10:18:26.530Z,97997.84
2022-11-12T10:21:50.065Z,97996.94
2022-11-12T10:24:39.148Z,98002.88
2022-11-12T10:27:34.579Z,97989.66
2022-11-12T10:30:24.123Z,97988.47
2022-11-12T10:33:15.204Z,97982.66
2022-11-12T10:36:13.332Z,97975.66
2022-11-12T10:38:59.912Z,97973.63
2022-11-12T10:41:45.461Z,97976.59
2022-11-12T10:44:31.581Z,97968.50
2022-11-12T10:47:26.017Z,97977.34
2022-11-12T10:50:42.612Z,97970.97
2022-11-12T10:53:35.730Z,97960.00
2022-11-12T10:56:26.018Z,97959.91
2022-11-12T10:59:15.965Z,97949.13
2022-11-12T11:02:01.729Z,97932.06
2022-11-12T11:04:47.782Z,97927.81
2022-11-12T11:07:33.302Z,97926.66
2022-11-12T11:10:34.292Z,97927.91
2022-11-12T11:13:23.092Z,97923.84
2022-11-12T11:16:13.164Z,97921.28
2022-11-12T11:19:03.029Z,97914.94
2022-11-12T11:21:51.332Z,97915.59
2022-11-12T11:25:14.555Z,97913.03
2022-11-12T11:28:13.232Z,97911.31
2022-11-12T11:30:58.589Z,97910.91
2022-11-12T11:33:58.218Z,97906.91
2022-11-12T11:37:05.550Z,97902.28
2022-11-12T11:40:09.381Z,97890.59
2022-11-12T11:43:20.459Z,97896.47
2022-11-12T11:46:21.081Z,97887.69
2022-11-12T11:49:13.374Z,97886.50
2022-11-12T11:52:08.609Z,97884.69
2022-11-12T11:55:34.906Z,97882.50
2022-11-12T11:58:32.628Z,97875.59
2022-11-12T12:01:56.697Z,97874.63
2022-11-12T12:04:51.973Z,97868.47
2022-11-12T12:08:02.641Z,97872.34
2022-11-12T12:11:47.911Z,97871.59
2022-11-12T12:15:20.733Z,97876.56
2022-11-12T12:18:15.892Z,97863.06
2022-11-12T12:21:19.807Z,97862.06
2022-11-12T12:24:33.835Z,97863.38
2022-11-12T12:27:24.488Z,97852.63
2022-11-12T12:30:23.639Z,97857.38
2022-11-12T12:33:28.054Z,97847.22
2022-11-12T12:36:39.182Z,97847.00
2022-11-12T12:39:54.515Z,97839.41
2022-11-12T12:43:32.679Z,97841.47
2022-11-12T12:46:23.290Z,97834.66
2022-11-12T12:49:15.980Z,97831.97
2022-11-12T12:52:01.501Z,97834.00
2022-11-12T12:54:53.721Z,97826.75
2022-11-12T12:57:40.018Z,97826.84
2022-11-12T13:00:32.995Z,97825.34
2022-11-12T13:03:46.750Z,97811.59
2022-11-12T13:06:40.358Z,97805.19
2022-11-12T13:09:30.595Z,97797.53
2022-11-12T13:12:17.875Z,97796.03
2022-11-12T13:15:16.190Z,97797.31
2022-11-12T13:18:01.843Z,97789.59
2022-11-12T13:21:17.429Z,97784.69
2022-11-12T13:24:12.651Z,97781.34
2022-11-12T13:27:00.219Z,97787.19
2022-11-12T13:29:47.761Z,97791.50
2022-11-12T13:32:51.662Z,97784.56
2022-11-12T13:35:41.119Z,97791.66
2022-11-12T13:38:27.486Z,97785.44
2022-11-12T13:41:40.443Z,97782.75
2022-11-12T13:44:28.045Z,97788.22
2022-11-12T13:47:20.860Z,97782.50
2022-11-12T13:50:10.297Z,97792.94
2022-11-12T13:52:56.379Z,97796.09
2022-11-12T13:55:49.557Z,97794.56
2022-11-12T13:58:36.773Z,97792.28
2022-11-12T14:01:23.963Z,97798.97
2022-11-12T14:04:16.014Z,97799.16
2022-11-12T14:07:25.689Z,97791.91
2022-11-12T14:10:33.793Z,97790.91
2022-11-12T14:13:25.077Z,97795.63
2022-11-12T14:16:30.672Z,97786.88
2022-11-12T14:19:44.007Z,97781.56
2022-11-12T14:22:40.342Z,97791.28
2022-11-12T14:25:27.791Z,97785.13
2022-11-12T14:28:33.331Z,97778.38
2022-11-12T14:31:24.474Z,97780.75
2022-11-12T14:34:27.825Z,97778.13
2022-11-12T14:37:39.835Z,97767.78
2022-11-12T14:40:30.518Z,97769.44
2022-11-12T14:43:37.719Z,97766.00
2022-11-12T14:46:30.339Z,97759.50
2022-11-12T14:49:34.394Z,97759.19
2022-11-12T14:52:27.577Z,97763.13
2022-11-12T14:55:22.723Z,97761.63
2022-11-12T14:58:17.892Z,97760.84
2022-11-12T15:04:41.909Z,97745.56
2022-11-12T15:07:30.350Z,97750.66
2022-11-12T15:10:49.048Z,97741.09
2022-11-12T15:13:41.691Z,97748.47
2022-11-12T15:16:35.203Z,97740.88
2022-11-12T15:19:23.350Z,97742.81
2022-11-12T15:22:22.279Z,97738.25
2022-11-12T15:25:27.690Z,97744.91
2022-11-12T15:28:24.408Z,97738.94
2022-11-12T15:31:22.238Z,97732.09
2022-11-12T15:34:29.859Z,97731.75
2022-11-12T15:37:18.595Z,97725.25
2022-11-12T15:40:12.818Z,97727.63
2022-11-12T15:42:59.429Z,97730.06
2022-11-12T15:45:49.669Z,97729.72
2022-11-12T15:48:35.035Z,97732.50
2022-11-12T15:51:23.808Z,97725.25
2022-11-12T15:54:09.493Z,97720.28
2022-11-12T15:56:56.031Z,97721.47
2022-11-12T15:59:45.978Z,97718.41
2022-11-12T16:02:32.265Z,97717.75
2022-11-12T16:05:19.117Z,97717.41
2022-11-12T16:08:05.210Z,97721.69
2022-11-12T16:10:51.028Z,97718.66
2022-11-12T16:13:36.914Z,97718.31
2022-11-12T16:16:22.540Z,97719.09
2022-11-12T16:19:14.558Z,97716.03
2022-11-12T16:22:01.567Z,97705.38
2022-11-12T16:24:48.227Z,97710.00
2022-11-12T16:27:36.396Z,97708.13
2022-11-12T16:30:26.125Z,97706.25
2022-11-12T16:33:13.515Z,97707.09
2022-11-12T16:35:59.299Z,97706.00
2022-11-12T16:38:46.646Z,97702.19
2022-11-12T16:41:32.515Z,97694.56
2022-11-12T16:44:18.178Z,97698.06
2022-11-12T16:47:05.533Z,97688.91
2022-11-12T16:49:51.388Z,97684.34
2022-11-12T16:52:37.151Z,97690.16
2022-11-12T16:55:23.189Z,97687.09
2022-11-12T16:58:13.304Z,97693.34
2022-11-12T17:00:59.020Z,97700.69
2022-11-12T17:03:44.781Z,97697.69
2022-11-12T17:06:50.624Z,97693.88
2022-11-12T17:09:35.979Z,97702.03
2022-11-12T17:12:21.639Z,97702.88
2022-11-12T17:15:08.321Z,97719.44
2022-11-12T17:17:55.088Z,97711.34
2022-11-12T17:20:41.008Z,97709.06
2022-11-12T17:23:28.063Z,97702.16
2022-11-12T17:26:16.628Z,97707.22
2022-11-12T17:29:08.437Z,97710.31
2022-11-12T17:31:54.468Z,97709.56
2022-11-12T17:34:40.241Z,97711.47
2022-11-12T17:37:27.187Z,97714.25
2022-11-12T17:40:13.187Z,97716.94
2022-11-12T17:42:58.992Z,97715.81
2022-11-12T17:45:55.155Z,97725.09
2022-11-12T17:48:41.259Z,97718.50
2022-11-12T17:51:28.635Z,97723.22
2022-11-12T17:54:14.571Z,97714.78
2022-11-12T17:57:00.364Z,97714.44
2022-11-12T17:59:45.915Z,97713.69
2022-11-12T18:02:31.561Z,97710.63
2022-11-12T18:05:17.186Z,97707.56
2022-11-12T18:08:02.942Z,97710.63
2022-11-12T18:10:48.484Z,97706.03
2022-11-12T18:13:34.230Z,97705.69
2022-11-12T18:16:28.620Z,97710.72
2022-11-12T18:19:14.439Z,97707.25
2022-11-12T18:22:02.352Z,97699.59
2022-11-12T18:24:48.528Z,97702.72
2022-11-12T18:27:34.268Z,97710.03
2022-11-12T18:30:19.891Z,97705.47
2022-11-12T18:33:06.032Z,97701.28
2022-11-12T18:36:01.649Z,97699.75
2022-11-12T18:38:50.268Z,97710.50
2022-11-12T18:41:35.842Z,97699.41
2022-11-12T18:44:25.889Z,97698.31
2022-11-12T18:47:11.912Z,97697.09
2022-11-12T18:50:02.927Z,97693.34
2022-11-12T18:52:52.759Z,97680.28
2022-11-12T18:55:38.742Z,97685.66
2022-11-12T18:58:24.101Z,97677.28
2022-11-12T19:01:21.045Z,97675.34
2022-11-12T19:04:06.816Z,97674.22
2022-11-12T19:06:52.453Z,97682.38
2022-11-12T19:09:40.328Z,97675.88
2022-11-12T19:12:25.750Z,97676.72
2022-11-12T19:15:11.805Z,97677.50
2022-11-12T19:17:59.786Z,97678.69
2022-11-12T19:20:47.694Z,97678.34
2022-11-12T19:23:36.633Z,97677.66
2022-11-12T19:26:23.464Z,97682.28
2022-11-12T19:29:09.524Z,97683.03
2022-11-12T19:31:55.066Z,97683.06
2022-11-12T19:34:41.088Z,97677.69
2022-11-12T19:37:33.400Z,97684.66
2022-11-12T19:40:19.960Z,97687.00
2022-11-12T19:43:05.601Z,97674.31
2022-11-12T19:45:51.379Z,97674.72
2022-11-12T19:48:37.735Z,97678.16
2022-11-12T19:51:24.544Z,97678.94
2022-11-12T19:54:11.401Z,97670.19
2022-11-12T19:56:57.167Z,97662.53
2022-11-12T19:59:42.990Z,97660.31
2022-11-12T20:02:29.146Z,97661.47
2022-11-12T20:05:14.658Z,97655.41
2022-11-12T20:08:00.683Z,97661.59
2022-11-12T20:10:47.363Z,97659.72
2022-11-12T20:13:34.572Z,97655.59
2022-11-12T20:16:25.291Z,97652.19
2022-11-12T20:19:11.629Z,97658.41
2022-11-12T20:21:57.097Z,97651.22
2022-11-12T20:24:43.393Z,97655.53
2022-11-12T20:27:29.461Z,97647.16
2022-11-12T20:30:17.998Z,97641.44
2022-11-12T20:33:03.614Z,97646.53
2022-11-12T20:35:49.341Z,97649.66
2022-11-12T20:38:40.961Z,97650.13
2022-11-12T20:41:27.462Z,97649.78
2022-11-12T20:44:13.777Z,97643.00
2022-11-12T20:47:01.682Z,97642.28
2022-11-12T20:49:47.246Z,97639.25
2022-11-12T20:52:33.016Z,97638.13
2022-11-12T20:55:19.030Z,97629.38
2022-11-12T20:58:04.999Z,97635.50
2022-11-12T21:00:51.155Z,97639.00
2022-11-12T21:03:39.902Z,97634.78
2022-11-12T21:06:27.809Z,97625.94
2022-11-12T21:09:14.014Z,97626.41
2022-11-12T21:11:59.626Z,97627.19
2022-11-12T21:14:50.385Z,97623.00
2022-11-12T21:17:36.421Z,97627.63
2022-11-12T21:20:22.136Z,97615.00
2022-11-12T21:23:07.766Z,97605.88
2022-11-12T21:25:53.575Z,97603.25
2022-11-12T21:28:42.551Z,97593.75
2022-11-12T21:31:30.106Z,97605.28
2022-11-12T21:34:15.723Z,97594.59
2022-11-12T21:37:01.422Z,97604.25
2022-11-12T21:39:49.501Z,97600.09
2022-11-12T21:42:35.159Z,97588.31
2022-11-12T21:45:21.048Z,97592.97
2022-11-12T21:48:06.904Z,97591.50
2022-11-12T21:50:52.475Z,97589.63
2022-11-12T21:53:38.999Z,97589.25
2022-11-12T21:56:25.284Z,97588.88
2022-11-12T21:59:11.010Z,97580.50
2022-11-12T22:01:56.448Z,97581.66
2022-11-12T22:04:42.355Z,97578.28
2022-11-12T22:07:27.776Z,97581.41
2022-11-12T22:10:13.793Z,97580.69
2022-11-12T22:13:25.421Z,97583.00
2022-11-12T22:16:12.563Z,97579.59
2022-11-12T22:18:59.360Z,97575.03
2022-11-12T22:21:44.846Z,97577.00
2022-11-12T22:24:30.647Z,97567.09
2022-11-12T22:27:15.920Z,97570.16
2022-11-12T22:30:01.477Z,97561.41
2022-11-12T22:32:47.322Z,97561.41
2022-11-12T22:35:33.597Z,97558.75
2022-11-12T22:38:19.365Z,97559.91
2022-11-12T22:41:13.706Z,97555.75
2022-11-12T22:44:01.413Z,97561.88
2022-11-12T22:46:46.962Z,97558.50
2022-11-12T22:49:32.808Z,97552.41
2022-11-12T22:52:19.233Z,97551.66
2022-11-12T22:55:05.427Z,97549.38
2022-11-12T22:57:50.942Z,97553.19
2022-11-12T23:00:36.720Z,97542.94
2022-11-12T23:03:22.163Z,97542.97
2022-11-12T23:06:08.193Z,97545.31
2022-11-12T23:08:55.495Z,97541.88
2022-11-12T23:11:41.422Z,97538.81
2022-11-12T23:14:29.580Z,97531.59
2022-11-12T23:17:15.303Z,97532.00
2022-11-12T23:20:00.790Z,97523.59
2022-11-12T23:22:46.782Z,97526.69
2022-11-12T23:25:36.659Z,97533.53
2022-11-12T23:28:22.363Z,97522.44
2022-11-12T23:31:32.420Z,97514.03
2022-11-12T23:34:18.151Z,97522.44
2022-11-12T23:37:03.638Z,97521.31
2022-11-12T23:39:49.628Z,97505.66
2022-11-12T23:42:35.135Z,97503.38
2022-11-12T23:45:20.793Z,97508.75
2022-11-12T23:48:06.457Z,97496.53
2022-11-12T23:51:03.602Z,97498.81
2022-11-12T23:53:50.037Z,97498.41
2022-11-12T23:56:35.539Z,97497.25
2022-11-12T23:59:21.358Z,97491.50
